Terminal Aerodrome Forecast
Issued by NWS Charleston, WV

Current Version | Previous Version | Graphics & Text | Print | Product List | Glossary On
Versions: 1 2 3 4 5 6 7 8 9 10 11 12 13 14 15 16 17 18 19 20 21 22 23 24
000
FTUS41 KRLX 190300 AAA
TAFHTS
TAF AMD
KHTS 190358Z 1904/1924 35006KT 6SM BR OVC025
     FM190600 35005KT 6SM BR BKN015
     FM191200 VRB03KT 4SM BR SCT015
     FM192000 VRB03KT P6SM FEW060=

USA.gov is the U.S. government's official web portal to all federal, state and local government web resources and services.